KWVI/WVI METAR and TAF weather

Enter ICAO airport designator
Station Type Date Time Source
KWVI METAR 2019/02/16 07:11 UTC NOAA

KWVI 160711Z AUTO 00000KT 10SM -RA BKN029 BKN033 BKN050 06/06 A3014 RMK AO2 P0000 T00560056


Station Type Date Time Source
KWVI Decoded METAR 2019/02/16 07:11 UTC NOAA

WATSONVILLE MUNICIPAL AIRPORT , CA, United States (KWVI) 36-56N 121-47W 43M
Feb 16, 2019 - 02:11 AM EST / 2019.02.16 0711 UTC
Wind: Calm:0
Visibility: 10 mile(s):0
Sky conditions: mostly cloudy
Weather: light rain
Precipitation last hour: A trace
Temperature: 42.1 F (5.6 C)
Dew Point: 42.1 F (5.6 C)
Relative Humidity: 100%
Pressure (altimeter): 30.14 in. Hg (1020 hPa)
ob: KWVI 160711Z AUTO 00000KT 10SM -RA BKN029 BKN033 BKN050 06/06 A3014 RMK AO2 P0000 T00560056
cycle: 7

Station Type Date Time Source
KWVI TAF UTC NOAA

Error!


Example: see airport list